sensor_id;sensor_type;location;lat;lon;timestamp;pressure;altitude;pressure_sealevel;temperature
66372;BMP180;53168;51.146;17.120;2022-09-09T00:01:36;99843.20;;;17.54
66372;BMP180;53168;51.146;17.120;2022-09-09T00:04:20;99843.80;;;17.50
66372;BMP180;53168;51.146;17.120;2022-09-09T00:07:05;99847.40;;;17.50
66372;BMP180;53168;51.146;17.120;2022-09-09T00:09:47;99846.00;;;17.50
66372;BMP180;53168;51.146;17.120;2022-09-09T00:12:33;99848.80;;;17.40
66372;BMP180;53168;51.146;17.120;2022-09-09T00:15:15;99852.80;;;17.40
66372;BMP180;53168;51.146;17.120;2022-09-09T00:17:58;99851.40;;;17.38
66372;BMP180;53168;51.146;17.120;2022-09-09T00:20:45;99852.80;;;17.30
66372;BMP180;53168;51.146;17.120;2022-09-09T00:23:27;99853.20;;;17.20
66372;BMP180;53168;51.146;17.120;2022-09-09T00:26:12;99853.40;;;17.20
66372;BMP180;53168;51.146;17.120;2022-09-09T00:28:57;99846.40;;;17.20
66372;BMP180;53168;51.146;17.120;2022-09-09T00:31:34;99850.00;;;17.20
66372;BMP180;53168;51.146;17.120;2022-09-09T00:34:16;99855.60;;;17.20
66372;BMP180;53168;51.146;17.120;2022-09-09T00:36:53;99857.00;;;17.20
66372;BMP180;53168;51.146;17.120;2022-09-09T00:39:37;99857.20;;;17.20
66372;BMP180;53168;51.146;17.120;2022-09-09T00:42:18;99853.20;;;17.10
66372;BMP180;53168;51.146;17.120;2022-09-09T00:45:05;99850.60;;;17.10
66372;BMP180;53168;51.146;17.120;2022-09-09T00:47:52;99852.60;;;17.08
66372;BMP180;53168;51.146;17.120;2022-09-09T00:50:47;99856.40;;;17.10
66372;BMP180;53168;51.146;17.120;2022-09-09T00:53:51;99849.60;;;17.20
66372;BMP180;53168;51.146;17.120;2022-09-09T00:56:36;99852.60;;;17.30
66372;BMP180;53168;51.146;17.120;2022-09-09T00:59:34;99857.00;;;17.30
66372;BMP180;53168;51.146;17.120;2022-09-09T01:02:31;99856.40;;;17.30
66372;BMP180;53168;51.146;17.120;2022-09-09T01:05:16;99854.80;;;17.30
66372;BMP180;53168;51.146;17.120;2022-09-09T01:07:54;99850.20;;;17.30
66372;BMP180;53168;51.146;17.120;2022-09-09T01:10:49;99860.40;;;17.30
66372;BMP180;53168;51.146;17.120;2022-09-09T01:13:31;99859.40;;;17.30
66372;BMP180;53168;51.146;17.120;2022-09-09T01:16:24;99859.40;;;17.38
66372;BMP180;53168;51.146;17.120;2022-09-09T01:19:04;99859.20;;;17.40
66372;BMP180;53168;51.146;17.120;2022-09-09T01:21:52;99859.20;;;17.30
66372;BMP180;53168;51.146;17.120;2022-09-09T01:24:42;99865.00;;;17.30
66372;BMP180;53168;51.146;17.120;2022-09-09T01:27:25;99863.60;;;17.30
66372;BMP180;53168;51.146;17.120;2022-09-09T01:30:04;99863.60;;;17.30
66372;BMP180;53168;51.146;17.120;2022-09-09T01:32:45;99869.80;;;17.30
66372;BMP180;53168;51.146;17.120;2022-09-09T01:35:44;99873.20;;;17.34
66372;BMP180;53168;51.146;17.120;2022-09-09T01:38:19;99873.80;;;17.40
66372;BMP180;53168;51.146;17.120;2022-09-09T01:40:56;99873.60;;;17.38
66372;BMP180;53168;51.146;17.120;2022-09-09T01:43:41;99875.80;;;17.30
66372;BMP180;53168;51.146;17.120;2022-09-09T01:46:16;99874.60;;;17.20
66372;BMP180;53168;51.146;17.120;2022-09-09T01:49:00;99874.60;;;17.20
66372;BMP180;53168;51.146;17.120;2022-09-09T01:51:37;99877.80;;;17.20
66372;BMP180;53168;51.146;17.120;2022-09-09T01:54:14;99878.80;;;17.12
66372;BMP180;53168;51.146;17.120;2022-09-09T01:57:00;99881.40;;;17.00
66372;BMP180;53168;51.146;17.120;2022-09-09T01:59:52;99882.80;;;16.80
66372;BMP180;53168;51.146;17.120;2022-09-09T02:02:32;99882.00;;;16.70
66372;BMP180;53168;51.146;17.120;2022-09-09T02:05:27;99884.80;;;16.60
66372;BMP180;53168;51.146;17.120;2022-09-09T02:08:09;99883.00;;;16.52
66372;BMP180;53168;51.146;17.120;2022-09-09T02:11:01;99876.40;;;16.50
66372;BMP180;53168;51.146;17.120;2022-09-09T02:13:48;99886.00;;;16.40
66372;BMP180;53168;51.146;17.120;2022-09-09T02:16:27;99887.60;;;16.32
66372;BMP180;53168;51.146;17.120;2022-09-09T02:19:11;99895.00;;;16.30
66372;BMP180;53168;51.146;17.120;2022-09-09T02:21:59;99893.20;;;16.30
66372;BMP180;53168;51.146;17.120;2022-09-09T02:24:39;99893.00;;;16.40
66372;BMP180;53168;51.146;17.120;2022-09-09T02:27:25;99890.20;;;16.50
66372;BMP180;53168;51.146;17.120;2022-09-09T02:30:03;99899.60;;;16.60
66372;BMP180;53168;51.146;17.120;2022-09-09T02:32:46;99896.00;;;16.60
66372;BMP180;53168;51.146;17.120;2022-09-09T02:35:25;99891.20;;;16.64
66372;BMP180;53168;51.146;17.120;2022-09-09T02:38:06;99894.40;;;16.60
66372;BMP180;53168;51.146;17.120;2022-09-09T02:41:04;99896.80;;;16.62
66372;BMP180;53168;51.146;17.120;2022-09-09T02:43:39;99898.60;;;16.60
66372;BMP180;53168;51.146;17.120;2022-09-09T02:46:44;99897.40;;;16.68
66372;BMP180;53168;51.146;17.120;2022-09-09T02:49:27;99903.00;;;16.70
66372;BMP180;53168;51.146;17.120;2022-09-09T02:52:08;99907.60;;;16.60
66372;BMP180;53168;51.146;17.120;2022-09-09T02:54:44;99903.60;;;16.50
66372;BMP180;53168;51.146;17.120;2022-09-09T02:57:25;99911.40;;;16.40
66372;BMP180;53168;51.146;17.120;2022-09-09T03:00:02;99910.20;;;16.30
66372;BMP180;53168;51.146;17.120;2022-09-09T03:02:36;99906.80;;;16.30
66372;BMP180;53168;51.146;17.120;2022-09-09T03:05:11;99902.20;;;16.12
66372;BMP180;53168;51.146;17.120;2022-09-09T03:07:45;99905.20;;;16.10
66372;BMP180;53168;51.146;17.120;2022-09-09T03:10:24;99904.80;;;16.00
66372;BMP180;53168;51.146;17.120;2022-09-09T03:12:58;99907.20;;;16.00
66372;BMP180;53168;51.146;17.120;2022-09-09T03:15:35;99907.40;;;16.00
66372;BMP180;53168;51.146;17.120;2022-09-09T03:18:09;99916.40;;;16.10
66372;BMP180;53168;51.146;17.120;2022-09-09T03:20:47;99916.60;;;16.10
66372;BMP180;53168;51.146;17.120;2022-09-09T03:23:22;99921.00;;;16.20
66372;BMP180;53168;51.146;17.120;2022-09-09T03:25:57;99923.40;;;16.20
66372;BMP180;53168;51.146;17.120;2022-09-09T03:28:39;99923.40;;;16.10
66372;BMP180;53168;51.146;17.120;2022-09-09T03:31:13;99923.40;;;16.00
66372;BMP180;53168;51.146;17.120;2022-09-09T03:33:47;99917.80;;;16.00
66372;BMP180;53168;51.146;17.120;2022-09-09T03:36:24;99918.60;;;15.90
66372;BMP180;53168;51.146;17.120;2022-09-09T03:42:07;99922.00;;;15.90
66372;BMP180;53168;51.146;17.120;2022-09-09T03:44:44;99927.40;;;15.92
66372;BMP180;53168;51.146;17.120;2022-09-09T03:47:28;99930.00;;;16.00
66372;BMP180;53168;51.146;17.120;2022-09-09T03:50:15;99927.20;;;16.00
66372;BMP180;53168;51.146;17.120;2022-09-09T03:52:52;99932.80;;;16.08
66372;BMP180;53168;51.146;17.120;2022-09-09T03:55:29;99929.00;;;16.10
66372;BMP180;53168;51.146;17.120;2022-09-09T03:58:04;99927.00;;;16.10
66372;BMP180;53168;51.146;17.120;2022-09-09T04:00:37;99932.40;;;16.10
66372;BMP180;53168;51.146;17.120;2022-09-09T04:03:16;99930.00;;;16.10
66372;BMP180;53168;51.146;17.120;2022-09-09T04:05:54;99934.40;;;16.10
66372;BMP180;53168;51.146;17.120;2022-09-09T04:08:34;99940.20;;;16.10
66372;BMP180;53168;51.146;17.120;2022-09-09T04:11:13;99944.00;;;16.10
66372;BMP180;53168;51.146;17.120;2022-09-09T04:13:49;99944.80;;;16.10
66372;BMP180;53168;51.146;17.120;2022-09-09T04:16:23;99939.40;;;16.00
66372;BMP180;53168;51.146;17.120;2022-09-09T04:18:58;99939.20;;;15.90
66372;BMP180;53168;51.146;17.120;2022-09-09T04:21:33;99940.80;;;15.80
66372;BMP180;53168;51.146;17.120;2022-09-09T04:24:08;99942.00;;;15.70
66372;BMP180;53168;51.146;17.120;2022-09-09T04:26:43;99946.60;;;15.64
66372;BMP180;53168;51.146;17.120;2022-09-09T04:29:25;99945.60;;;15.70
66372;BMP180;53168;51.146;17.120;2022-09-09T04:32:01;99949.60;;;15.70
66372;BMP180;53168;51.146;17.120;2022-09-09T04:34:36;99948.40;;;15.74
66372;BMP180;53168;51.146;17.120;2022-09-09T04:37:10;99946.40;;;15.80
66372;BMP180;53168;51.146;17.120;2022-09-09T04:39:44;99954.80;;;15.90
66372;BMP180;53168;51.146;17.120;2022-09-09T04:42:18;99948.00;;;15.90
66372;BMP180;53168;51.146;17.120;2022-09-09T04:44:51;99948.00;;;15.84
66372;BMP180;53168;51.146;17.120;2022-09-09T04:47:24;99954.00;;;15.80
66372;BMP180;53168;51.146;17.120;2022-09-09T04:49:58;99952.20;;;15.70
66372;BMP180;53168;51.146;17.120;2022-09-09T04:52:33;99948.40;;;15.70
66372;BMP180;53168;51.146;17.120;2022-09-09T04:55:09;99951.20;;;15.62
66372;BMP180;53168;51.146;17.120;2022-09-09T04:57:43;99951.40;;;15.70
66372;BMP180;53168;51.146;17.120;2022-09-09T05:00:19;99950.80;;;15.90
66372;BMP180;53168;51.146;17.120;2022-09-09T05:02:54;99953.00;;;16.00
66372;BMP180;53168;51.146;17.120;2022-09-09T05:05:32;99950.40;;;16.10
66372;BMP180;53168;51.146;17.120;2022-09-09T05:08:16;99956.20;;;16.20
66372;BMP180;53168;51.146;17.120;2022-09-09T05:10:57;99957.80;;;16.26
66372;BMP180;53168;51.146;17.120;2022-09-09T05:13:32;99959.60;;;16.38
66372;BMP180;53168;51.146;17.120;2022-09-09T05:16:17;99960.80;;;16.40
66372;BMP180;53168;51.146;17.120;2022-09-09T05:18:53;99963.00;;;16.50
66372;BMP180;53168;51.146;17.120;2022-09-09T05:21:50;99963.00;;;16.58
66372;BMP180;53168;51.146;17.120;2022-09-09T05:24:43;99976.00;;;16.60
66372;BMP180;53168;51.146;17.120;2022-09-09T05:27:33;99977.60;;;16.70
66372;BMP180;53168;51.146;17.120;2022-09-09T05:30:10;99976.60;;;16.70
66372;BMP180;53168;51.146;17.120;2022-09-09T05:32:43;99975.80;;;16.70
66372;BMP180;53168;51.146;17.120;2022-09-09T05:35:17;99971.40;;;16.70
66372;BMP180;53168;51.146;17.120;2022-09-09T05:38:24;99974.60;;;16.78
66372;BMP180;53168;51.146;17.120;2022-09-09T05:44:22;99978.60;;;16.90
66372;BMP180;53168;51.146;17.120;2022-09-09T05:47:27;99985.60;;;16.98
66372;BMP180;53168;51.146;17.120;2022-09-09T05:50:01;99982.40;;;17.02
66372;BMP180;53168;51.146;17.120;2022-09-09T05:52:45;99981.40;;;17.06
66372;BMP180;53168;51.146;17.120;2022-09-09T05:55:27;99978.80;;;17.08
66372;BMP180;53168;51.146;17.120;2022-09-09T05:58:03;99977.80;;;17.10
66372;BMP180;53168;51.146;17.120;2022-09-09T06:01:05;99975.20;;;17.26
66372;BMP180;53168;51.146;17.120;2022-09-09T06:04:00;99972.80;;;17.44
66372;BMP180;53168;51.146;17.120;2022-09-09T06:06:52;99973.40;;;17.60
66372;BMP180;53168;51.146;17.120;2022-09-09T06:09:58;99976.20;;;17.70
66372;BMP180;53168;51.146;17.120;2022-09-09T06:12:32;99984.80;;;17.70
66372;BMP180;53168;51.146;17.120;2022-09-09T06:15:08;99982.20;;;17.70
66372;BMP180;53168;51.146;17.120;2022-09-09T06:17:42;99981.00;;;17.68
66372;BMP180;53168;51.146;17.120;2022-09-09T06:20:17;99974.80;;;17.70
66372;BMP180;53168;51.146;17.120;2022-09-09T06:22:52;99974.20;;;17.90
66372;BMP180;53168;51.146;17.120;2022-09-09T06:25:25;99969.20;;;18.10
66372;BMP180;53168;51.146;17.120;2022-09-09T06:27:59;99968.20;;;18.30
66372;BMP180;53168;51.146;17.120;2022-09-09T06:30:37;99970.60;;;18.50
66372;BMP180;53168;51.146;17.120;2022-09-09T06:33:10;99966.20;;;18.68
66372;BMP180;53168;51.146;17.120;2022-09-09T06:35:52;99972.60;;;18.80
66372;BMP180;53168;51.146;17.120;2022-09-09T06:38:26;99969.40;;;19.00
66372;BMP180;53168;51.146;17.120;2022-09-09T06:41:27;99973.60;;;19.24
66372;BMP180;53168;51.146;17.120;2022-09-09T06:44:03;99974.80;;;19.40
66372;BMP180;53168;51.146;17.120;2022-09-09T06:46:45;99980.40;;;19.50
66372;BMP180;53168;51.146;17.120;2022-09-09T06:49:20;99980.40;;;19.66
66372;BMP180;53168;51.146;17.120;2022-09-09T06:51:54;99983.00;;;19.80
66372;BMP180;53168;51.146;17.120;2022-09-09T06:54:35;99987.40;;;19.90
66372;BMP180;53168;51.146;17.120;2022-09-09T06:57:13;99984.80;;;20.10
66372;BMP180;53168;51.146;17.120;2022-09-09T07:00:26;99985.80;;;20.24
66372;BMP180;53168;51.146;17.120;2022-09-09T07:03:23;99981.20;;;20.48
66372;BMP180;53168;51.146;17.120;2022-09-09T07:06:12;99990.60;;;20.60
66372;BMP180;53168;51.146;17.120;2022-09-09T07:09:02;99985.80;;;20.80
66372;BMP180;53168;51.146;17.120;2022-09-09T07:11:49;99985.80;;;21.00
66372;BMP180;53168;51.146;17.120;2022-09-09T07:14:27;99989.60;;;21.18
66372;BMP180;53168;51.146;17.120;2022-09-09T07:17:04;99996.20;;;21.30
66372;BMP180;53168;51.146;17.120;2022-09-09T07:19:41;99993.00;;;21.50
66372;BMP180;53168;51.146;17.120;2022-09-09T07:22:15;99995.80;;;21.60
66372;BMP180;53168;51.146;17.120;2022-09-09T07:24:49;99996.20;;;21.78
66372;BMP180;53168;51.146;17.120;2022-09-09T07:27:25;99998.20;;;21.80
66372;BMP180;53168;51.146;17.120;2022-09-09T07:29:59;99999.60;;;21.80
66372;BMP180;53168;51.146;17.120;2022-09-09T07:32:36;99999.80;;;21.88
66372;BMP180;53168;51.146;17.120;2022-09-09T07:35:10;99995.40;;;21.90
66372;BMP180;53168;51.146;17.120;2022-09-09T07:37:44;99991.40;;;21.90
66372;BMP180;53168;51.146;17.120;2022-09-09T07:40:23;99989.20;;;22.00
66372;BMP180;53168;51.146;17.120;2022-09-09T07:42:57;99988.20;;;22.12
66372;BMP180;53168;51.146;17.120;2022-09-09T07:45:31;99992.40;;;22.30
66372;BMP180;53168;51.146;17.120;2022-09-09T07:48:06;99999.20;;;22.32
66372;BMP180;53168;51.146;17.120;2022-09-09T07:50:40;100002.80;;;22.32
66372;BMP180;53168;51.146;17.120;2022-09-09T07:53:14;100006.40;;;22.38
66372;BMP180;53168;51.146;17.120;2022-09-09T07:55:48;100008.20;;;22.40
66372;BMP180;53168;51.146;17.120;2022-09-09T07:58:21;100013.40;;;22.42
66372;BMP180;53168;51.146;17.120;2022-09-09T08:00:54;100013.60;;;22.50
66372;BMP180;53168;51.146;17.120;2022-09-09T08:03:29;100011.20;;;22.60
66372;BMP180;53168;51.146;17.120;2022-09-09T08:06:07;100010.00;;;22.70
66372;BMP180;53168;51.146;17.120;2022-09-09T08:08:41;100016.40;;;22.76
66372;BMP180;53168;51.146;17.120;2022-09-09T08:11:17;100015.20;;;22.90
66372;BMP180;53168;51.146;17.120;2022-09-09T08:13:50;100009.00;;;23.00
66372;BMP180;53168;51.146;17.120;2022-09-09T08:16:29;100013.80;;;23.10
66372;BMP180;53168;51.146;17.120;2022-09-09T08:19:06;100012.20;;;23.20
66372;BMP180;53168;51.146;17.120;2022-09-09T08:21:41;100009.40;;;23.30
66372;BMP180;53168;51.146;17.120;2022-09-09T08:24:16;100008.40;;;23.38
66372;BMP180;53168;51.146;17.120;2022-09-09T08:26:58;100011.20;;;23.50
66372;BMP180;53168;51.146;17.120;2022-09-09T08:29:39;100008.60;;;23.62
66372;BMP180;53168;51.146;17.120;2022-09-09T08:32:20;100008.00;;;23.86
66372;BMP180;53168;51.146;17.120;2022-09-09T08:34:58;100011.40;;;24.00
66372;BMP180;53168;51.146;17.120;2022-09-09T08:37:48;100007.40;;;24.10
66372;BMP180;53168;51.146;17.120;2022-09-09T08:40:35;99996.60;;;24.20
66372;BMP180;53168;51.146;17.120;2022-09-09T08:43:32;99996.60;;;24.30
66372;BMP180;53168;51.146;17.120;2022-09-09T08:46:20;100001.80;;;24.48
66372;BMP180;53168;51.146;17.120;2022-09-09T08:49:04;100004.40;;;24.70
66372;BMP180;53168;51.146;17.120;2022-09-09T08:51:43;100004.80;;;24.90
66372;BMP180;53168;51.146;17.120;2022-09-09T08:54:23;100004.20;;;25.10
66372;BMP180;53168;51.146;17.120;2022-09-09T08:57:58;100012.20;;;25.20
66372;BMP180;53168;51.146;17.120;2022-09-09T09:00:54;100011.40;;;25.28
66372;BMP180;53168;51.146;17.120;2022-09-09T09:03:47;100016.00;;;25.30
66372;BMP180;53168;51.146;17.120;2022-09-09T09:06:41;100019.80;;;25.20
66372;BMP180;53168;51.146;17.120;2022-09-09T09:09:35;100021.00;;;25.10
66372;BMP180;53168;51.146;17.120;2022-09-09T09:12:21;100020.40;;;25.16
66372;BMP180;53168;51.146;17.120;2022-09-09T09:14:56;100022.60;;;25.10
66372;BMP180;53168;51.146;17.120;2022-09-09T09:17:34;100014.40;;;24.90
66372;BMP180;53168;51.146;17.120;2022-09-09T09:20:17;100018.20;;;24.78
66372;BMP180;53168;51.146;17.120;2022-09-09T09:22:53;100021.20;;;24.70
66372;BMP180;53168;51.146;17.120;2022-09-09T09:25:33;100022.20;;;24.66
66372;BMP180;53168;51.146;17.120;2022-09-09T09:28:17;100022.00;;;24.70
66372;BMP180;53168;51.146;17.120;2022-09-09T09:30:59;100018.20;;;24.80
66372;BMP180;53168;51.146;17.120;2022-09-09T09:33:46;100019.00;;;24.80
66372;BMP180;53168;51.146;17.120;2022-09-09T09:36:35;100022.20;;;24.80
66372;BMP180;53168;51.146;17.120;2022-09-09T09:39:21;100024.40;;;24.90
66372;BMP180;53168;51.146;17.120;2022-09-09T09:42:18;100023.80;;;25.00
66372;BMP180;53168;51.146;17.120;2022-09-09T09:44:56;100023.00;;;25.10
66372;BMP180;53168;51.146;17.120;2022-09-09T09:47:40;100028.40;;;25.10
66372;BMP180;53168;51.146;17.120;2022-09-09T09:50:23;100024.00;;;25.10
66372;BMP180;53168;51.146;17.120;2022-09-09T09:53:03;100022.00;;;25.10
66372;BMP180;53168;51.146;17.120;2022-09-09T09:55:48;100023.60;;;25.10
66372;BMP180;53168;51.146;17.120;2022-09-09T09:58:23;100020.80;;;25.20
66372;BMP180;53168;51.146;17.120;2022-09-09T10:00:58;100022.00;;;25.30
66372;BMP180;53168;51.146;17.120;2022-09-09T10:03:35;100019.00;;;25.32
66372;BMP180;53168;51.146;17.120;2022-09-09T10:06:12;100018.80;;;25.40
66372;BMP180;53168;51.146;17.120;2022-09-09T10:08:48;100019.00;;;25.50
66372;BMP180;53168;51.146;17.120;2022-09-09T10:11:40;100021.60;;;25.58
66372;BMP180;53168;51.146;17.120;2022-09-09T10:14:24;100019.80;;;25.60
66372;BMP180;53168;51.146;17.120;2022-09-09T10:17:17;100019.80;;;25.68
66372;BMP180;53168;51.146;17.120;2022-09-09T10:20:12;100023.60;;;25.64
66372;BMP180;53168;51.146;17.120;2022-09-09T10:22:57;100025.20;;;25.60
66372;BMP180;53168;51.146;17.120;2022-09-09T10:25:56;100021.60;;;25.50
66372;BMP180;53168;51.146;17.120;2022-09-09T10:28:56;100023.60;;;25.40
66372;BMP180;53168;51.146;17.120;2022-09-09T10:31:48;100032.80;;;25.40
66372;BMP180;53168;51.146;17.120;2022-09-09T10:34:47;100033.00;;;25.40
66372;BMP180;53168;51.146;17.120;2022-09-09T10:37:44;100029.20;;;25.50
66372;BMP180;53168;51.146;17.120;2022-09-09T10:40:34;100019.80;;;25.68
66372;BMP180;53168;51.146;17.120;2022-09-09T10:43:25;100013.00;;;25.80
66372;BMP180;53168;51.146;17.120;2022-09-09T10:46:11;100015.20;;;25.82
66372;BMP180;53168;51.146;17.120;2022-09-09T10:49:08;100017.00;;;25.90
66372;BMP180;53168;51.146;17.120;2022-09-09T10:51:54;100016.20;;;25.90
66372;BMP180;53168;51.146;17.120;2022-09-09T10:54:53;100008.60;;;26.00
66372;BMP180;53168;51.146;17.120;2022-09-09T10:57:35;100013.60;;;26.18
66372;BMP180;53168;51.146;17.120;2022-09-09T11:00:21;100015.20;;;26.20
66372;BMP180;53168;51.146;17.120;2022-09-09T11:05:59;100015.60;;;26.34
66372;BMP180;53168;51.146;17.120;2022-09-09T11:08:37;100017.80;;;26.40
66372;BMP180;53168;51.146;17.120;2022-09-09T11:11:16;100014.00;;;26.40
66372;BMP180;53168;51.146;17.120;2022-09-09T11:14:00;100007.60;;;26.40
66372;BMP180;53168;51.146;17.120;2022-09-09T11:16:40;100011.40;;;26.48
66372;BMP180;53168;51.146;17.120;2022-09-09T11:19:24;100011.00;;;26.60
66372;BMP180;53168;51.146;17.120;2022-09-09T11:22:03;100016.20;;;26.80
66372;BMP180;53168;51.146;17.120;2022-09-09T11:24:43;100017.80;;;26.96
66372;BMP180;53168;51.146;17.120;2022-09-09T11:27:29;100015.20;;;27.20
66372;BMP180;53168;51.146;17.120;2022-09-09T11:30:18;100014.20;;;27.40
66372;BMP180;53168;51.146;17.120;2022-09-09T11:33:39;100007.20;;;27.66
66372;BMP180;53168;51.146;17.120;2022-09-09T11:36:54;100016.80;;;28.02
66372;BMP180;53168;51.146;17.120;2022-09-09T11:40:00;100014.40;;;28.20
66372;BMP180;53168;51.146;17.120;2022-09-09T11:42:37;100013.40;;;28.30
66372;BMP180;53168;51.146;17.120;2022-09-09T11:45:26;100013.00;;;28.30
66372;BMP180;53168;51.146;17.120;2022-09-09T11:48:03;100008.40;;;28.50
66372;BMP180;53168;51.146;17.120;2022-09-09T11:50:39;100006.40;;;28.70
66372;BMP180;53168;51.146;17.120;2022-09-09T11:53:26;100006.80;;;28.70
66372;BMP180;53168;51.146;17.120;2022-09-09T11:56:12;100007.60;;;28.96
66372;BMP180;53168;51.146;17.120;2022-09-09T11:58:58;99993.00;;;29.40
66372;BMP180;53168;51.146;17.120;2022-09-09T12:01:39;99917.40;;;30.96
66372;BMP180;53168;51.146;17.120;2022-09-09T12:04:49;99954.60;;;32.38
66372;BMP180;53168;51.146;17.120;2022-09-09T12:07:36;100012.00;;;32.62
66372;BMP180;53168;51.146;17.120;2022-09-09T12:10:27;100016.60;;;31.74
66372;BMP180;53168;51.146;17.120;2022-09-09T12:13:20;100006.00;;;31.72
66372;BMP180;53168;51.146;17.120;2022-09-09T12:15:56;100013.80;;;31.20
66372;BMP180;53168;51.146;17.120;2022-09-09T12:18:40;100011.80;;;30.90
66372;BMP180;53168;51.146;17.120;2022-09-09T12:21:30;100003.80;;;30.80
66372;BMP180;53168;51.146;17.120;2022-09-09T12:24:11;100002.40;;;30.88
66372;BMP180;53168;51.146;17.120;2022-09-09T12:26:55;99999.60;;;30.88
66372;BMP180;53168;51.146;17.120;2022-09-09T12:29:43;99989.40;;;31.44
66372;BMP180;53168;51.146;17.120;2022-09-09T12:32:24;99975.00;;;32.00
66372;BMP180;53168;51.146;17.120;2022-09-09T12:35:02;99981.20;;;33.46
66372;BMP180;53168;51.146;17.120;2022-09-09T12:37:42;99971.00;;;34.06
66372;BMP180;53168;51.146;17.120;2022-09-09T12:40:28;99974.40;;;35.62
66372;BMP180;53168;51.146;17.120;2022-09-09T12:43:18;99988.80;;;36.14
66372;BMP180;53168;51.146;17.120;2022-09-09T12:45:56;99993.20;;;36.92
66372;BMP180;53168;51.146;17.120;2022-09-09T12:48:38;99988.20;;;37.02
66372;BMP180;53168;51.146;17.120;2022-09-09T12:51:25;99992.20;;;37.24
66372;BMP180;53168;51.146;17.120;2022-09-09T12:54:01;100013.00;;;36.92
66372;BMP180;53168;51.146;17.120;2022-09-09T12:56:37;100010.80;;;37.10
66372;BMP180;53168;51.146;17.120;2022-09-09T12:59:26;100026.20;;;37.48
66372;BMP180;53168;51.146;17.120;2022-09-09T13:02:21;100014.40;;;36.46
66372;BMP180;53168;51.146;17.120;2022-09-09T13:04:55;99998.20;;;36.16
66372;BMP180;53168;51.146;17.120;2022-09-09T13:07:39;99981.60;;;35.52
66372;BMP180;53168;51.146;17.120;2022-09-09T13:10:19;100012.00;;;35.08
66372;BMP180;53168;51.146;17.120;2022-09-09T13:13:17;100011.00;;;34.40
66372;BMP180;53168;51.146;17.120;2022-09-09T13:15:55;99999.00;;;34.54
66372;BMP180;53168;51.146;17.120;2022-09-09T13:18:33;100002.40;;;35.46
66372;BMP180;53168;51.146;17.120;2022-09-09T13:21:07;99984.20;;;35.92
66372;BMP180;53168;51.146;17.120;2022-09-09T13:23:41;100002.40;;;36.32
66372;BMP180;53168;51.146;17.120;2022-09-09T13:26:26;99970.60;;;37.48
66372;BMP180;53168;51.146;17.120;2022-09-09T13:29:19;99993.80;;;39.66
66372;BMP180;53168;51.146;17.120;2022-09-09T13:34:39;100002.80;;;41.18
66372;BMP180;53168;51.146;17.120;2022-09-09T13:37:30;100004.80;;;39.34
66372;BMP180;53168;51.146;17.120;2022-09-09T13:40:05;100006.80;;;38.66
66372;BMP180;53168;51.146;17.120;2022-09-09T13:42:42;99977.80;;;38.40
66372;BMP180;53168;51.146;17.120;2022-09-09T13:45:22;99978.80;;;38.64
66372;BMP180;53168;51.146;17.120;2022-09-09T13:48:10;99989.40;;;37.78
66372;BMP180;53168;51.146;17.120;2022-09-09T13:50:55;99980.60;;;37.10
66372;BMP180;53168;51.146;17.120;2022-09-09T13:53:29;99974.80;;;37.62
66372;BMP180;53168;51.146;17.120;2022-09-09T13:56:03;99961.80;;;39.06
66372;BMP180;53168;51.146;17.120;2022-09-09T13:58:36;99980.60;;;38.36
66372;BMP180;53168;51.146;17.120;2022-09-09T14:01:10;99982.60;;;37.16
66372;BMP180;53168;51.146;17.120;2022-09-09T14:03:44;99985.40;;;36.18
66372;BMP180;53168;51.146;17.120;2022-09-09T14:06:17;99975.20;;;35.50
66372;BMP180;53168;51.146;17.120;2022-09-09T14:08:52;99965.40;;;36.78
66372;BMP180;53168;51.146;17.120;2022-09-09T14:11:26;99972.00;;;37.62
66372;BMP180;53168;51.146;17.120;2022-09-09T14:14:00;99977.00;;;37.88
66372;BMP180;53168;51.146;17.120;2022-09-09T14:16:34;99974.80;;;38.02
66372;BMP180;53168;51.146;17.120;2022-09-09T14:19:09;99971.60;;;38.60
66372;BMP180;53168;51.146;17.120;2022-09-09T14:21:43;99968.40;;;39.12
66372;BMP180;53168;51.146;17.120;2022-09-09T14:24:17;99973.20;;;39.20
66372;BMP180;53168;51.146;17.120;2022-09-09T14:26:53;99972.00;;;39.16
66372;BMP180;53168;51.146;17.120;2022-09-09T14:29:29;99977.80;;;39.34
66372;BMP180;53168;51.146;17.120;2022-09-09T14:32:10;99988.40;;;38.74
66372;BMP180;53168;51.146;17.120;2022-09-09T14:34:44;99983.80;;;38.02
66372;BMP180;53168;51.146;17.120;2022-09-09T14:37:17;99992.80;;;37.90
66372;BMP180;53168;51.146;17.120;2022-09-09T14:39:50;99991.60;;;37.36
66372;BMP180;53168;51.146;17.120;2022-09-09T14:42:24;99991.80;;;36.98
66372;BMP180;53168;51.146;17.120;2022-09-09T14:44:58;99984.20;;;36.86
66372;BMP180;53168;51.146;17.120;2022-09-09T14:47:31;99977.20;;;37.44
66372;BMP180;53168;51.146;17.120;2022-09-09T14:50:06;99976.80;;;37.96
66372;BMP180;53168;51.146;17.120;2022-09-09T14:52:42;99981.60;;;38.14
66372;BMP180;53168;51.146;17.120;2022-09-09T14:55:23;99975.80;;;38.38
66372;BMP180;53168;51.146;17.120;2022-09-09T14:57:57;99982.80;;;38.04
66372;BMP180;53168;51.146;17.120;2022-09-09T15:00:30;99979.60;;;37.20
66372;BMP180;53168;51.146;17.120;2022-09-09T15:03:03;99968.80;;;36.16
66372;BMP180;53168;51.146;17.120;2022-09-09T15:05:39;99966.20;;;35.58
66372;BMP180;53168;51.146;17.120;2022-09-09T15:08:12;99957.40;;;35.30
66372;BMP180;53168;51.146;17.120;2022-09-09T15:10:45;99961.00;;;35.20
66372;BMP180;53168;51.146;17.120;2022-09-09T15:13:19;99961.60;;;34.90
66372;BMP180;53168;51.146;17.120;2022-09-09T15:15:52;99963.40;;;34.50
66372;BMP180;53168;51.146;17.120;2022-09-09T15:18:30;99956.60;;;34.00
66372;BMP180;53168;51.146;17.120;2022-09-09T15:21:05;99952.20;;;33.60
66372;BMP180;53168;51.146;17.120;2022-09-09T15:23:39;99949.20;;;33.20
66372;BMP180;53168;51.146;17.120;2022-09-09T15:26:13;99950.60;;;32.90